createdAt,value
2022-08-17T00:00:44.062Z,22.42
2022-08-17T00:03:23.051Z,20.98
2022-08-17T00:06:12.121Z,21.23
2022-08-17T00:08:50.739Z,22.88
2022-08-17T00:11:26.131Z,23.30
2022-08-17T00:13:58.593Z,23.58
2022-08-17T00:16:50.371Z,21.77
2022-08-17T00:19:24.233Z,23.03
2022-08-17T00:22:31.671Z,22.95
2022-08-17T00:24:43.597Z,25.20
2022-08-17T00:27:10.576Z,26.98
2022-08-17T00:29:37.730Z,27.83
2022-08-17T00:33:15.898Z,26.77
2022-08-17T00:34:52.056Z,26.30
2022-08-17T00:37:19.143Z,25.08
2022-08-17T00:39:46.253Z,23.65
2022-08-17T00:42:19.259Z,26.35
2022-08-17T00:44:46.579Z,26.73
2022-08-17T00:47:13.676Z,28.92
2022-08-17T00:49:40.988Z,28.58
2022-08-17T00:52:16.822Z,26.98
2022-08-17T00:54:47.789Z,29.50
2022-08-17T00:57:37.102Z,29.40
2022-08-17T01:00:21.316Z,29.48
2022-08-17T01:02:48.940Z,31.08
2022-08-17T01:05:22.053Z,30.25
2022-08-17T01:07:53.097Z,31.85
2022-08-17T01:10:58.345Z,28.83
2022-08-17T01:13:17.494Z,30.08
2022-08-17T01:16:11.830Z,29.50
2022-08-17T01:18:39.503Z,30.08
2022-08-17T01:21:44.671Z,30.15
2022-08-17T01:24:11.830Z,30.17
2022-08-17T01:26:42.417Z,29.60
2022-08-17T01:29:10.441Z,31.05
2022-08-17T01:31:47.584Z,30.63
2022-08-17T01:34:17.641Z,32.00
2022-08-17T01:36:49.225Z,31.90
2022-08-17T01:39:38.612Z,31.73
2022-08-17T01:42:13.253Z,29.67
2022-08-17T01:44:41.225Z,32.05
2022-08-17T01:47:08.387Z,30.63
2022-08-17T01:49:35.501Z,32.35
2022-08-17T01:52:11.097Z,28.58
2022-08-17T01:54:41.787Z,30.65
2022-08-17T01:57:10.199Z,31.05
2022-08-17T01:59:37.663Z,29.98
2022-08-17T02:02:07.234Z,31.08
2022-08-17T02:04:34.923Z,30.67
2022-08-17T02:07:02.144Z,30.10
2022-08-17T02:09:31.747Z,31.25
2022-08-17T02:12:37.270Z,31.35
2022-08-17T02:14:59.249Z,28.70
2022-08-17T02:17:26.452Z,28.55
2022-08-17T02:19:53.502Z,30.10
2022-08-17T02:22:20.580Z,28.00
2022-08-17T02:25:00.688Z,28.92
2022-08-17T02:27:29.880Z,29.13
2022-08-17T02:29:57.527Z,29.40
2022-08-17T02:32:27.951Z,29.17
2022-08-17T02:34:59.240Z,29.20
2022-08-17T02:37:30.940Z,29.15
2022-08-17T02:39:59.412Z,28.42
2022-08-17T02:42:38.473Z,28.92
2022-08-17T02:45:13.566Z,28.52
2022-08-17T02:47:41.898Z,27.07
2022-08-17T02:50:14.559Z,27.70
2022-08-17T02:52:44.732Z,28.52
2022-08-17T02:55:32.933Z,27.95
2022-08-17T02:58:01.591Z,27.20
2022-08-17T03:00:36.436Z,27.92
2022-08-17T03:03:06.026Z,26.20
2022-08-17T03:05:35.977Z,28.70
2022-08-17T03:08:05.545Z,26.83
2022-08-17T03:10:33.331Z,26.70
2022-08-17T03:13:00.489Z,27.42
2022-08-17T03:15:32.190Z,27.17
2022-08-17T03:18:01.198Z,27.42
2022-08-17T03:20:31.491Z,26.83
2022-08-17T03:23:01.901Z,27.20
2022-08-17T03:25:34.623Z,27.42
2022-08-17T03:28:02.508Z,29.15
2022-08-17T03:30:29.682Z,27.60
2022-08-17T03:33:00.587Z,27.23
2022-08-17T03:35:32.847Z,25.58
2022-08-17T03:38:01.287Z,24.88
2022-08-17T03:40:34.519Z,25.55
2022-08-17T03:43:18.072Z,27.40
2022-08-17T03:46:03.736Z,26.10
2022-08-17T03:48:51.199Z,24.90
2022-08-17T03:51:41.473Z,26.83
2022-08-17T03:54:29.100Z,26.88
2022-08-17T03:57:07.742Z,28.88
2022-08-17T03:59:36.423Z,29.65
2022-08-17T04:02:13.023Z,27.92
2022-08-17T04:04:40.816Z,28.98
2022-08-17T04:07:08.431Z,29.35
2022-08-17T04:09:36.528Z,29.77
2022-08-17T04:12:05.285Z,30.10
2022-08-17T04:14:52.269Z,29.55
2022-08-17T04:17:27.606Z,30.98
2022-08-17T04:19:55.848Z,29.95
2022-08-17T04:22:30.753Z,28.85
2022-08-17T04:25:19.739Z,30.13
2022-08-17T04:27:48.259Z,30.08
2022-08-17T04:30:15.774Z,31.80
2022-08-17T04:33:08.721Z,29.92
2022-08-17T04:35:53.956Z,31.05
2022-08-17T04:38:30.704Z,31.23
2022-08-17T04:41:18.999Z,32.00
2022-08-17T04:43:48.797Z,31.48
2022-08-17T04:46:19.489Z,32.55
2022-08-17T04:48:51.425Z,31.67
2022-08-17T04:51:47.886Z,30.88
2022-08-17T04:54:23.990Z,30.27
2022-08-17T04:56:51.203Z,30.83
2022-08-17T04:59:21.727Z,31.95
2022-08-17T05:01:51.255Z,32.08
2022-08-17T05:04:34.604Z,31.48
2022-08-17T05:07:04.184Z,30.55
2022-08-17T05:09:31.569Z,31.40
2022-08-17T05:12:02.397Z,30.85
2022-08-17T05:14:33.491Z,30.85
2022-08-17T05:17:07.348Z,31.13
2022-08-17T05:19:37.665Z,31.25
2022-08-17T05:22:05.934Z,31.02
2022-08-17T05:24:42.911Z,31.33
2022-08-17T05:27:19.739Z,31.95
2022-08-17T05:29:46.758Z,31.55
2022-08-17T05:32:38.034Z,31.73
2022-08-17T05:35:02.122Z,30.23
2022-08-17T05:37:29.219Z,31.65
2022-08-17T05:39:56.414Z,30.90
2022-08-17T05:42:24.124Z,31.23
2022-08-17T05:44:51.301Z,30.33
2022-08-17T05:47:18.524Z,31.48
2022-08-17T05:49:48.908Z,29.95
2022-08-17T05:53:01.276Z,31.25
2022-08-17T05:56:27.947Z,30.42
2022-08-17T05:59:13.911Z,30.70
2022-08-17T06:02:02.865Z,31.88
2022-08-17T06:04:35.818Z,32.45
2022-08-17T06:07:47.878Z,32.85
2022-08-17T06:10:41.111Z,32.88
2022-08-17T06:13:28.743Z,31.70
2022-08-17T06:16:26.180Z,31.73
2022-08-17T06:19:13.484Z,31.45
2022-08-17T06:21:47.389Z,33.22
2022-08-17T06:24:33.785Z,32.75
2022-08-17T06:27:53.688Z,32.38
2022-08-17T06:30:28.608Z,32.85
2022-08-17T06:33:32.209Z,34.08
2022-08-17T06:36:15.789Z,33.15
2022-08-17T06:39:07.887Z,32.10
2022-08-17T06:42:03.260Z,32.60
2022-08-17T06:45:11.309Z,32.60
2022-08-17T06:47:49.474Z,32.80
2022-08-17T06:50:49.361Z,32.95
2022-08-17T06:53:53.399Z,33.00
2022-08-17T06:56:53.495Z,33.28
2022-08-17T06:59:54.529Z,31.45
2022-08-17T07:03:02.432Z,31.58
2022-08-17T07:05:58.406Z,31.33
2022-08-17T07:08:44.233Z,31.70
2022-08-17T07:11:19.416Z,31.48
2022-08-17T07:14:36.445Z,33.00
2022-08-17T07:17:20.645Z,33.20
2022-08-17T07:20:02.211Z,31.25
2022-08-17T07:23:10.554Z,33.47
2022-08-17T07:25:37.643Z,32.15
2022-08-17T07:28:07.758Z,32.47
2022-08-17T07:30:46.954Z,33.75
2022-08-17T07:33:29.284Z,35.15
2022-08-17T07:35:58.147Z,34.45
2022-08-17T07:38:30.146Z,33.67
2022-08-17T07:41:02.655Z,35.60
2022-08-17T07:43:41.991Z,34.70
2022-08-17T07:46:30.307Z,34.97
2022-08-17T07:49:07.494Z,33.63
2022-08-17T07:51:45.731Z,33.28
2022-08-17T07:54:15.573Z,33.95
2022-08-17T07:57:30.004Z,33.67
2022-08-17T08:00:01.497Z,32.30
2022-08-17T08:02:34.330Z,32.78
2022-08-17T08:05:30.682Z,31.95
2022-08-17T08:08:26.710Z,29.15
2022-08-17T08:11:11.713Z,29.15
2022-08-17T08:13:43.803Z,28.52
2022-08-17T08:16:26.354Z,27.58
2022-08-17T08:18:58.670Z,27.10
2022-08-17T08:21:29.119Z,25.92
2022-08-17T08:24:33.364Z,27.05
2022-08-17T08:27:44.461Z,25.20
2022-08-17T08:30:21.460Z,25.27
2022-08-17T08:32:57.671Z,24.67
2022-08-17T08:35:59.028Z,23.88
2022-08-17T08:38:42.569Z,24.98
2022-08-17T08:41:34.124Z,23.58
2022-08-17T08:45:00.615Z,22.95
2022-08-17T08:47:48.440Z,24.27
2022-08-17T08:50:43.325Z,23.30
2022-08-17T08:53:55.483Z,23.15
2022-08-17T08:57:11.567Z,24.35
2022-08-17T08:59:57.896Z,24.63
2022-08-17T09:02:59.577Z,25.35
2022-08-17T09:06:32.228Z,24.15
2022-08-17T09:09:58.981Z,25.70
2022-08-17T09:12:47.635Z,24.60
2022-08-17T09:15:27.609Z,23.90
2022-08-17T09:19:01.231Z,25.23
2022-08-17T09:21:29.032Z,24.83
2022-08-17T09:24:16.280Z,24.33
2022-08-17T09:26:58.943Z,25.05
2022-08-17T09:29:34.339Z,23.63
2022-08-17T09:32:17.661Z,24.15
2022-08-17T09:35:12.354Z,25.02
2022-08-17T09:38:04.050Z,24.23
2022-08-17T09:40:43.308Z,24.85
2022-08-17T09:43:20.234Z,25.27
2022-08-17T09:46:01.745Z,23.50
2022-08-17T09:48:43.600Z,24.38
2022-08-17T09:51:34.910Z,26.00
2022-08-17T09:54:34.843Z,26.02
2022-08-17T09:57:29.046Z,25.58
2022-08-17T10:00:25.143Z,25.70
2022-08-17T10:03:28.250Z,23.80
2022-08-17T10:06:13.208Z,25.20
2022-08-17T10:09:07.307Z,24.80
2022-08-17T10:12:17.333Z,26.08
2022-08-17T10:15:08.077Z,27.17
2022-08-17T10:17:55.546Z,26.67
2022-08-17T10:23:26.744Z,26.55
2022-08-17T10:28:56.209Z,22.27
2022-08-17T10:31:47.657Z,22.98
2022-08-17T10:34:41.099Z,22.73
2022-08-17T10:37:20.096Z,22.30
2022-08-17T10:40:22.199Z,22.33
2022-08-17T10:42:52.238Z,20.83
2022-08-17T10:45:28.107Z,20.25
2022-08-17T10:48:24.862Z,19.85
2022-08-17T10:51:38.031Z,21.52
2022-08-17T10:54:50.480Z,21.92
2022-08-17T10:57:31.654Z,22.45
2022-08-17T11:00:08.236Z,22.20
2022-08-17T11:02:54.020Z,23.75
2022-08-17T11:08:57.525Z,19.77
2022-08-17T11:11:57.776Z,19.70
2022-08-17T11:14:50.585Z,19.67
2022-08-17T11:18:15.301Z,19.17
2022-08-17T11:21:16.579Z,19.55
2022-08-17T11:24:03.953Z,20.25
2022-08-17T11:26:36.757Z,22.23
2022-08-17T11:29:19.832Z,21.95
2022-08-17T11:32:13.481Z,22.38
2022-08-17T11:34:44.533Z,21.23
2022-08-17T11:37:44.746Z,21.98
2022-08-17T11:40:53.449Z,23.05
2022-08-17T11:44:19.434Z,22.85
2022-08-17T11:47:30.303Z,23.23
2022-08-17T11:50:50.906Z,23.58
2022-08-17T11:53:37.211Z,22.48
2022-08-17T11:56:31.717Z,22.98
2022-08-17T11:59:00.806Z,22.73
2022-08-17T12:01:28.938Z,22.08
2022-08-17T12:04:22.678Z,20.95
2022-08-17T12:06:56.890Z,20.20
2022-08-17T12:09:39.416Z,21.38
2022-08-17T12:12:20.136Z,20.13
2022-08-17T12:15:09.713Z,20.17
2022-08-17T12:17:41.498Z,18.77
2022-08-17T12:20:27.778Z,19.67
2022-08-17T12:23:07.137Z,18.60
2022-08-17T12:25:40.885Z,18.88
2022-08-17T12:28:31.818Z,18.80
2022-08-17T12:31:14.022Z,18.48
2022-08-17T12:33:46.789Z,17.25
2022-08-17T12:36:19.139Z,16.65
2022-08-17T12:39:14.155Z,16.40
2022-08-17T12:41:46.966Z,16.40
2022-08-17T12:44:25.919Z,16.85
2022-08-17T12:47:10.702Z,16.20
2022-08-17T12:49:43.901Z,14.90
2022-08-17T12:52:30.676Z,15.98
2022-08-17T12:55:01.821Z,18.05
2022-08-17T12:57:40.269Z,17.92
2022-08-17T13:00:24.785Z,19.40
2022-08-17T13:03:07.664Z,20.23
2022-08-17T13:05:43.527Z,19.60
2022-08-17T13:08:20.775Z,21.40
2022-08-17T13:11:01.623Z,19.88
2022-08-17T13:13:38.975Z,19.98
2022-08-17T13:16:11.585Z,19.35
2022-08-17T13:18:49.067Z,20.42
2022-08-17T13:21:19.201Z,19.65
2022-08-17T13:24:08.068Z,18.30
2022-08-17T13:26:45.598Z,18.45
2022-08-17T13:29:32.291Z,18.55
2022-08-17T13:32:13.462Z,19.38
2022-08-17T13:34:56.163Z,19.17
2022-08-17T13:37:36.681Z,20.15
2022-08-17T13:40:09.630Z,18.55
2022-08-17T13:42:52.655Z,19.05
2022-08-17T13:45:35.268Z,18.83
2022-08-17T13:48:16.550Z,19.05
2022-08-17T13:51:12.616Z,19.73
2022-08-17T13:53:40.440Z,21.17
2022-08-17T13:56:34.962Z,21.60
2022-08-17T13:59:38.246Z,21.77
2022-08-17T14:02:20.649Z,21.70
2022-08-17T14:04:48.652Z,22.92
2022-08-17T14:07:16.090Z,22.67
2022-08-17T14:10:10.063Z,23.05
2022-08-17T14:12:40.942Z,21.95
2022-08-17T14:15:11.417Z,22.98
2022-08-17T14:17:39.346Z,23.17
2022-08-17T14:20:10.579Z,21.65
2022-08-17T14:22:42.646Z,23.48
2022-08-17T14:25:14.649Z,24.33
2022-08-17T14:27:53.635Z,24.13
2022-08-17T14:30:24.896Z,25.27
2022-08-17T14:32:53.083Z,24.30
2022-08-17T14:35:23.031Z,24.13
2022-08-17T14:37:51.901Z,23.88
2022-08-17T14:40:24.280Z,23.27
2022-08-17T14:42:53.400Z,23.00
2022-08-17T14:45:31.650Z,22.75
2022-08-17T14:48:04.407Z,22.98
2022-08-17T14:50:32.150Z,23.52
2022-08-17T14:53:05.404Z,22.42
2022-08-17T14:55:33.444Z,22.73
2022-08-17T14:58:00.643Z,22.60
2022-08-17T15:00:28.490Z,22.60
2022-08-17T15:02:59.997Z,22.35
2022-08-17T15:05:34.464Z,22.05
2022-08-17T15:08:03.487Z,23.55
2022-08-17T15:10:31.985Z,24.13
2022-08-17T15:13:00.502Z,23.13
2022-08-17T15:15:29.136Z,23.92
2022-08-17T15:17:56.786Z,23.15
2022-08-17T15:20:28.662Z,22.88
2022-08-17T15:22:58.679Z,23.02
2022-08-17T15:25:29.446Z,24.02
2022-08-17T15:27:56.524Z,23.30
2022-08-17T15:30:25.912Z,22.40
2022-08-17T15:32:55.132Z,23.65
2022-08-17T15:35:27.199Z,22.02
2022-08-17T15:37:58.377Z,24.92
2022-08-17T15:40:25.457Z,22.98
2022-08-17T15:42:52.874Z,24.42
2022-08-17T15:45:24.817Z,21.70
2022-08-17T15:47:53.225Z,16.95
2022-08-17T15:50:20.608Z,11.77
2022-08-17T15:52:54.690Z,7.75
2022-08-17T15:55:24.140Z,7.20
2022-08-17T15:57:52.146Z,6.93
2022-08-17T16:00:20.178Z,6.55
2022-08-17T16:03:44.914Z,7.53
2022-08-17T16:05:35.740Z,8.45
2022-08-17T16:08:03.022Z,8.15
2022-08-17T16:10:35.136Z,8.50
2022-08-17T16:13:04.442Z,9.70
2022-08-17T16:15:32.212Z,9.93
2022-08-17T16:17:59.791Z,10.48
2022-08-17T16:20:27.596Z,10.25
2022-08-17T16:22:55.258Z,10.90
2022-08-17T16:25:38.807Z,9.48
2022-08-17T16:28:17.089Z,12.23
2022-08-17T16:30:44.254Z,16.60
2022-08-17T16:33:11.708Z,17.33
2022-08-17T16:35:39.209Z,18.58
2022-08-17T16:38:07.276Z,19.85
2022-08-17T16:40:36.129Z,20.90
2022-08-17T16:43:10.272Z,22.70
2022-08-17T16:45:40.503Z,23.13
2022-08-17T16:48:09.445Z,23.90
2022-08-17T16:50:37.165Z,23.90
2022-08-17T16:53:11.559Z,24.13
2022-08-17T16:55:38.750Z,24.92
2022-08-17T16:58:08.695Z,26.33
2022-08-17T17:00:37.045Z,26.80
2022-08-17T17:03:19.982Z,26.40
2022-08-17T17:06:27.790Z,25.45
2022-08-17T17:09:00.918Z,24.55
2022-08-17T17:11:50.845Z,24.63
2022-08-17T17:14:28.247Z,24.08
2022-08-17T17:17:26.777Z,24.10
2022-08-17T17:20:09.419Z,23.40
2022-08-17T17:23:11.564Z,22.48
2022-08-17T17:25:57.953Z,22.35
2022-08-17T17:29:14.177Z,21.70
2022-08-17T17:32:13.933Z,21.15
2022-08-17T17:34:50.980Z,20.58
2022-08-17T17:37:27.794Z,20.80
2022-08-17T17:40:01.233Z,19.88
2022-08-17T17:42:31.803Z,19.05
2022-08-17T17:45:04.660Z,18.48
2022-08-17T17:47:32.797Z,19.38
2022-08-17T17:50:02.328Z,18.80
2022-08-17T17:52:47.503Z,17.80
2022-08-17T17:55:35.866Z,18.80
2022-08-17T17:58:06.999Z,18.23
2022-08-17T18:00:49.712Z,18.13
2022-08-17T18:03:26.047Z,17.52
2022-08-17T18:06:45.447Z,18.40
2022-08-17T18:09:37.995Z,18.10
2022-08-17T18:12:11.187Z,18.42
2022-08-17T18:14:58.550Z,16.88
2022-08-17T18:17:26.462Z,17.95
2022-08-17T18:19:55.895Z,15.75
2022-08-17T18:22:23.728Z,16.88
2022-08-17T18:24:55.939Z,16.27
2022-08-17T18:27:34.689Z,15.93
2022-08-17T18:30:27.388Z,14.48
2022-08-17T18:32:54.319Z,15.30
2022-08-17T18:35:29.120Z,14.35
2022-08-17T18:38:20.365Z,15.68
2022-08-17T18:41:01.209Z,14.30
2022-08-17T18:43:36.452Z,14.52
2022-08-17T18:46:28.600Z,14.32
2022-08-17T18:49:19.406Z,14.05
2022-08-17T18:51:46.727Z,13.32
2022-08-17T18:54:24.584Z,13.48
2022-08-17T18:56:56.964Z,12.75
2022-08-17T18:59:41.555Z,12.77
2022-08-17T19:05:31.247Z,11.77
2022-08-17T19:10:47.465Z,11.48
2022-08-17T19:13:23.258Z,10.38
2022-08-17T19:16:12.190Z,10.02
2022-08-17T19:18:47.976Z,10.20
2022-08-17T19:21:40.527Z,10.35
2022-08-17T19:24:26.491Z,10.45
2022-08-17T19:27:11.416Z,9.82
2022-08-17T19:29:51.817Z,11.05
2022-08-17T19:32:25.874Z,12.02
2022-08-17T19:34:54.719Z,10.85
2022-08-17T19:37:59.502Z,10.82
2022-08-17T19:40:52.774Z,10.80
2022-08-17T19:43:48.074Z,10.77
2022-08-17T19:46:37.683Z,10.88
2022-08-17T19:49:41.762Z,10.38
2022-08-17T19:52:39.835Z,12.10
2022-08-17T19:55:20.957Z,12.85
2022-08-17T19:58:39.287Z,12.85
2022-08-17T20:01:13.006Z,14.65
2022-08-17T20:03:58.135Z,14.50
2022-08-17T20:06:29.203Z,12.80
2022-08-17T20:09:36.801Z,13.20
2022-08-17T20:12:14.418Z,12.48
2022-08-17T20:14:53.711Z,12.20
2022-08-17T20:17:39.595Z,14.43
2022-08-17T20:21:20.817Z,15.30
2022-08-17T20:24:13.029Z,12.07
2022-08-17T20:26:58.875Z,12.13
2022-08-17T20:32:28.046Z,16.02
2022-08-17T20:35:27.449Z,12.20
2022-08-17T20:38:04.653Z,12.40
2022-08-17T20:40:54.449Z,11.23
2022-08-17T20:43:34.035Z,10.80
2022-08-17T20:46:21.181Z,11.43
2022-08-17T20:48:53.169Z,11.13
2022-08-17T20:51:31.817Z,11.23
2022-08-17T20:54:17.252Z,10.95
2022-08-17T20:56:44.448Z,10.70
2022-08-17T20:59:25.655Z,11.40
2022-08-17T21:02:17.600Z,9.95
2022-08-17T21:04:55.133Z,10.93
2022-08-17T21:07:53.475Z,10.20
2022-08-17T21:10:26.600Z,10.50
2022-08-17T21:13:21.816Z,10.38
2022-08-17T21:16:41.236Z,11.23
2022-08-17T21:20:08.086Z,10.88
2022-08-17T21:23:10.161Z,10.85
2022-08-17T21:26:08.819Z,10.63
2022-08-17T21:29:31.338Z,11.32
2022-08-17T21:32:03.031Z,11.00
2022-08-17T21:34:34.648Z,11.48
2022-08-17T21:37:20.424Z,11.65
2022-08-17T21:40:01.167Z,11.30
2022-08-17T21:42:34.460Z,11.52
2022-08-17T21:45:37.772Z,11.07
2022-08-17T21:48:20.275Z,11.27
2022-08-17T21:51:19.429Z,11.65
2022-08-17T21:53:52.339Z,11.73
2022-08-17T21:56:35.409Z,11.57
2022-08-17T21:59:32.917Z,11.55
2022-08-17T22:02:06.029Z,11.85
2022-08-17T22:04:38.877Z,11.88
2022-08-17T22:07:11.885Z,11.95
2022-08-17T22:09:50.074Z,11.77
2022-08-17T22:12:24.151Z,11.95
2022-08-17T22:15:01.910Z,12.68
2022-08-17T22:17:41.135Z,12.35
2022-08-17T22:20:20.286Z,11.65
2022-08-17T22:23:09.244Z,13.05
2022-08-17T22:25:40.970Z,12.55
2022-08-17T22:28:12.565Z,11.93
2022-08-17T22:30:43.321Z,12.70
2022-08-17T22:33:44.013Z,12.43
2022-08-17T22:36:41.713Z,13.30
2022-08-17T22:39:08.683Z,12.13
2022-08-17T22:41:50.936Z,12.63
2022-08-17T22:44:46.860Z,13.05
2022-08-17T22:47:17.135Z,12.23
2022-08-17T22:49:57.802Z,12.15
2022-08-17T22:53:01.613Z,12.20
2022-08-17T22:55:50.723Z,13.25
2022-08-17T22:58:43.212Z,12.57
2022-08-17T23:01:34.812Z,12.38
2022-08-17T23:04:29.222Z,11.43
2022-08-17T23:06:56.569Z,11.73
2022-08-17T23:09:23.655Z,10.63
2022-08-17T23:11:58.710Z,10.90
2022-08-17T23:14:31.566Z,11.15
2022-08-17T23:16:59.704Z,10.90
2022-08-17T23:19:31.604Z,11.48
2022-08-17T23:22:02.197Z,11.68
2022-08-17T23:24:35.579Z,12.75
2022-08-17T23:27:07.299Z,11.85
2022-08-17T23:29:39.213Z,12.85
2022-08-17T23:32:07.015Z,12.05
2022-08-17T23:34:33.981Z,12.30
2022-08-17T23:37:02.138Z,12.65
2022-08-17T23:39:29.310Z,11.75
2022-08-17T23:42:05.141Z,11.80
2022-08-17T23:47:00.225Z,10.93
2022-08-17T23:49:27.226Z,10.60
2022-08-17T23:51:55.149Z,8.57
2022-08-17T23:54:44.669Z,8.70
2022-08-17T23:57:16.087Z,7.65
2022-08-17T23:59:46.542Z,7.15
